createdAt,value
2018-01-11T00:00:31.951Z,44.90
2018-01-11T00:03:00.636Z,45.00
2018-01-11T00:05:29.703Z,44.90
2018-01-11T00:07:57.990Z,44.90
2018-01-11T00:10:26.271Z,44.90
2018-01-11T00:12:54.561Z,45.00
2018-01-11T00:15:23.258Z,44.90
2018-01-11T00:17:51.534Z,45.00
2018-01-11T00:20:20.667Z,44.90
2018-01-11T00:22:49.378Z,44.90
2018-01-11T00:25:17.704Z,44.90
2018-01-11T00:27:45.980Z,44.90
2018-01-11T00:30:14.275Z,44.90
2018-01-11T00:32:42.564Z,44.90
2018-01-11T00:35:11.168Z,44.90
2018-01-11T00:37:39.459Z,44.90
2018-01-11T00:40:08.231Z,44.90
2018-01-11T00:42:36.509Z,44.90
2018-01-11T00:45:05.096Z,44.90
2018-01-11T00:47:33.383Z,44.90
2018-01-11T00:50:02.367Z,44.90
2018-01-11T00:52:30.945Z,44.90
2018-01-11T00:54:59.238Z,44.90
2018-01-11T00:57:27.915Z,44.90
2018-01-11T00:59:56.192Z,44.90
2018-01-11T01:02:24.479Z,44.90
2018-01-11T01:04:53.448Z,44.90
2018-01-11T01:07:21.739Z,44.90
2018-01-11T01:09:50.023Z,44.90
2018-01-11T01:12:18.327Z,44.90
2018-01-11T01:14:46.610Z,44.90
2018-01-11T01:17:14.886Z,44.90
2018-01-11T01:19:43.178Z,44.70
2018-01-11T01:22:11.457Z,44.90
2018-01-11T01:24:39.878Z,44.70
2018-01-11T01:27:08.546Z,44.70
2018-01-11T01:29:36.838Z,44.70
2018-01-11T01:32:05.518Z,44.70
2018-01-11T01:34:34.503Z,44.70
2018-01-11T01:37:03.096Z,44.70
2018-01-11T01:39:31.382Z,44.70
2018-01-11T01:41:59.743Z,44.70
2018-01-11T01:44:28.046Z,44.70
2018-01-11T01:46:56.718Z,44.70
2018-01-11T01:49:25.431Z,44.70
2018-01-11T01:51:53.716Z,44.70
2018-01-11T01:54:22.035Z,44.70
2018-01-11T01:56:50.375Z,44.70
2018-01-11T01:59:18.651Z,44.70
2018-01-11T02:01:46.925Z,44.70
2018-01-11T02:04:15.261Z,44.70
2018-01-11T02:06:43.577Z,44.70
2018-01-11T02:09:11.866Z,44.70
2018-01-11T02:11:40.283Z,44.70
2018-01-11T02:14:08.569Z,44.70
2018-01-11T02:16:36.871Z,44.60
2018-01-11T02:19:05.406Z,44.60
2018-01-11T02:21:34.002Z,44.70
2018-01-11T02:24:02.301Z,44.60
2018-01-11T02:26:31.002Z,44.70
2018-01-11T02:28:59.281Z,44.70
2018-01-11T02:31:27.554Z,44.60
2018-01-11T02:33:55.989Z,44.60
2018-01-11T02:36:24.292Z,44.60
2018-01-11T02:38:52.990Z,44.60
2018-01-11T02:41:21.403Z,44.60
2018-01-11T02:43:49.689Z,44.60
2018-01-11T02:46:17.982Z,44.60
2018-01-11T02:48:46.293Z,44.60
2018-01-11T02:51:14.971Z,44.60
2018-01-11T02:53:43.533Z,44.60
2018-01-11T02:56:11.848Z,44.60
2018-01-11T02:58:40.123Z,44.60
2018-01-11T03:01:08.416Z,44.60
2018-01-11T03:03:36.722Z,44.60
2018-01-11T03:06:04.998Z,44.60
2018-01-11T03:08:33.751Z,44.60
2018-01-11T03:11:02.179Z,44.60
2018-01-11T03:13:30.763Z,44.60
2018-01-11T03:15:59.064Z,44.60
2018-01-11T03:18:27.830Z,44.60
2018-01-11T03:20:56.127Z,44.40
2018-01-11T03:23:25.098Z,44.40
2018-01-11T03:25:53.457Z,44.40
2018-01-11T03:28:21.769Z,44.40
2018-01-11T03:30:50.132Z,44.40
2018-01-11T03:33:18.448Z,44.40
2018-01-11T03:35:46.765Z,44.40
2018-01-11T03:38:15.046Z,44.40
2018-01-11T03:40:43.390Z,44.40
2018-01-11T03:43:11.672Z,44.40
2018-01-11T03:45:39.955Z,44.40
2018-01-11T03:48:08.311Z,44.40
2018-01-11T03:50:36.621Z,44.40
2018-01-11T03:53:04.931Z,44.40
2018-01-11T03:55:33.650Z,44.40
2018-01-11T03:58:01.929Z,44.40
2018-01-11T04:00:30.203Z,44.40
2018-01-11T04:02:59.378Z,44.30
2018-01-11T04:05:27.675Z,44.40
2018-01-11T04:07:55.950Z,44.30
2018-01-11T04:10:24.271Z,44.30
2018-01-11T04:12:52.986Z,44.30
2018-01-11T04:15:21.686Z,44.30
2018-01-11T04:17:50.384Z,44.30
2018-01-11T04:20:18.658Z,44.30
2018-01-11T04:22:46.954Z,44.30
2018-01-11T04:25:15.582Z,44.30
2018-01-11T04:27:44.163Z,44.30
2018-01-11T04:30:13.162Z,44.30
2018-01-11T04:32:42.138Z,44.30
2018-01-11T04:35:10.438Z,44.30
2018-01-11T04:37:38.742Z,44.30
2018-01-11T04:40:07.073Z,44.30
2018-01-11T04:42:35.360Z,44.30
2018-01-11T04:45:03.652Z,44.30
2018-01-11T04:47:32.370Z,44.30
2018-01-11T04:50:00.670Z,44.30
2018-01-11T04:52:28.955Z,44.10
2018-01-11T04:54:57.333Z,44.10
2018-01-11T04:57:25.621Z,44.10
2018-01-11T04:59:54.162Z,44.10
2018-01-11T05:02:22.458Z,44.10
2018-01-11T05:04:50.804Z,44.10
2018-01-11T05:07:19.152Z,44.10
2018-01-11T05:09:47.865Z,44.10
2018-01-11T05:12:16.166Z,44.10
2018-01-11T05:14:44.794Z,44.10
2018-01-11T05:17:13.126Z,44.10
2018-01-11T05:19:41.430Z,44.10
2018-01-11T05:22:09.731Z,44.10
2018-01-11T05:24:38.474Z,44.10
2018-01-11T05:27:07.199Z,44.10
2018-01-11T05:29:35.514Z,44.10
2018-01-11T05:32:03.813Z,44.10
2018-01-11T05:34:32.094Z,44.10
2018-01-11T05:37:00.452Z,44.10
2018-01-11T05:39:28.807Z,44.10
2018-01-11T05:41:57.498Z,44.10
2018-01-11T05:44:25.832Z,44.10
2018-01-11T05:46:54.179Z,44.10
2018-01-11T05:49:23.345Z,44.10
2018-01-11T05:51:51.626Z,44.10
2018-01-11T05:54:19.950Z,44.10
2018-01-11T05:56:48.230Z,44.10
2018-01-11T05:59:16.526Z,44.10
2018-01-11T06:01:45.258Z,44.10
2018-01-11T06:04:13.559Z,44.10
2018-01-11T06:06:41.862Z,44.10
2018-01-11T06:09:10.159Z,44.10
2018-01-11T06:11:38.890Z,44.10
2018-01-11T06:14:07.223Z,44.10
2018-01-11T06:16:35.907Z,44.10
2018-01-11T06:19:04.639Z,44.10
2018-01-11T06:21:33.155Z,44.10
2018-01-11T06:24:01.445Z,44.10
2018-01-11T06:26:29.782Z,44.10
2018-01-11T06:28:58.071Z,44.10
2018-01-11T06:31:26.351Z,44.10
2018-01-11T06:33:54.711Z,44.10
2018-01-11T06:36:23.015Z,44.10
2018-01-11T06:38:51.304Z,44.10
2018-01-11T06:41:19.606Z,44.10
2018-01-11T06:43:48.151Z,44.10
2018-01-11T06:46:16.457Z,44.10
2018-01-11T06:48:44.792Z,44.10
2018-01-11T06:51:13.077Z,44.10
2018-01-11T06:53:41.362Z,44.10
2018-01-11T06:56:09.745Z,44.10
2018-01-11T06:58:38.043Z,44.10
2018-01-11T07:01:07.007Z,44.10
2018-01-11T07:03:35.592Z,44.10
2018-01-11T07:06:03.877Z,44.10
2018-01-11T07:08:32.215Z,44.10
2018-01-11T07:11:00.520Z,44.10
2018-01-11T07:13:28.824Z,44.10
2018-01-11T07:15:57.153Z,44.10
2018-01-11T07:18:25.462Z,44.10
2018-01-11T07:20:54.711Z,44.10
2018-01-11T07:23:23.111Z,44.10
2018-01-11T07:25:51.411Z,44.10
2018-01-11T07:28:20.502Z,44.10
2018-01-11T07:30:49.090Z,44.10
2018-01-11T07:33:17.375Z,44.10
2018-01-11T07:35:46.114Z,44.10
2018-01-11T07:38:14.422Z,44.10
2018-01-11T07:40:43.217Z,44.10
2018-01-11T07:43:12.849Z,44.10
2018-01-11T07:45:41.458Z,44.10
2018-01-11T07:48:09.763Z,44.10
2018-01-11T07:50:38.330Z,44.10
2018-01-11T07:53:06.645Z,44.10
2018-01-11T07:55:35.223Z,44.10
2018-01-11T07:58:03.757Z,44.10
2018-01-11T08:00:32.057Z,44.10
2018-01-11T08:03:00.442Z,44.10
2018-01-11T08:05:28.746Z,44.10
2018-01-11T08:07:57.075Z,44.10
2018-01-11T08:10:25.361Z,44.10
2018-01-11T08:12:53.675Z,44.10
2018-01-11T08:15:21.986Z,44.10
2018-01-11T08:17:50.292Z,44.10
2018-01-11T08:20:18.642Z,44.10
2018-01-11T08:22:46.946Z,44.10
2018-01-11T08:25:15.228Z,44.10
2018-01-11T08:27:43.835Z,44.10
2018-01-11T08:30:12.196Z,44.10
2018-01-11T08:32:40.877Z,44.10
2018-01-11T08:35:09.202Z,44.10
2018-01-11T08:37:37.758Z,44.10
2018-01-11T08:40:06.118Z,44.10
2018-01-11T08:42:34.403Z,44.10
2018-01-11T08:45:02.687Z,44.10
2018-01-11T08:47:31.003Z,44.10
2018-01-11T08:49:59.425Z,44.10
2018-01-11T08:52:27.706Z,44.10
2018-01-11T08:54:56.081Z,44.10
2018-01-11T08:57:24.685Z,44.00
2018-01-11T08:59:53.089Z,44.10
2018-01-11T09:02:21.606Z,44.10
2018-01-11T09:04:49.969Z,44.00
2018-01-11T09:07:18.278Z,44.00
2018-01-11T09:09:46.638Z,44.10
2018-01-11T09:12:14.916Z,44.00
2018-01-11T09:14:43.204Z,44.00
2018-01-11T09:17:11.536Z,44.10
2018-01-11T09:19:39.955Z,44.00
2018-01-11T09:22:08.205Z,44.10
2018-01-11T09:24:36.846Z,44.00
2018-01-11T09:27:05.162Z,44.10
2018-01-11T09:29:33.585Z,44.00
2018-01-11T09:32:01.879Z,44.10
2018-01-11T09:34:30.539Z,44.10
2018-01-11T09:36:58.818Z,44.10
2018-01-11T09:39:27.301Z,44.10
2018-01-11T09:41:55.596Z,44.10
2018-01-11T09:44:23.875Z,44.10
2018-01-11T09:46:52.174Z,44.10
2018-01-11T09:49:20.895Z,44.10
2018-01-11T09:51:49.215Z,44.10
2018-01-11T09:54:17.930Z,44.10
2018-01-11T09:56:46.672Z,44.10
2018-01-11T09:59:14.998Z,44.10
2018-01-11T10:01:43.302Z,44.10
2018-01-11T10:04:11.670Z,44.10
2018-01-11T10:06:39.991Z,44.10
2018-01-11T10:09:09.177Z,44.10
2018-01-11T10:11:38.244Z,44.10
2018-01-11T10:14:06.852Z,44.10
2018-01-11T10:16:35.152Z,44.10
2018-01-11T10:19:03.455Z,44.10
2018-01-11T10:21:32.109Z,44.10
2018-01-11T10:24:00.456Z,44.10
2018-01-11T10:26:28.761Z,44.10
2018-01-11T10:28:57.172Z,44.10
2018-01-11T10:31:25.481Z,44.10
2018-01-11T10:33:54.102Z,44.10
2018-01-11T10:36:22.381Z,44.10
2018-01-11T10:38:50.673Z,44.10
2018-01-11T10:41:19.424Z,44.10
2018-01-11T10:43:48.033Z,44.10
2018-01-11T10:46:17.426Z,44.10
2018-01-11T10:48:45.747Z,44.10
2018-01-11T10:51:14.031Z,44.10
2018-01-11T10:53:42.303Z,44.10
2018-01-11T10:56:10.844Z,44.30
2018-01-11T10:58:39.132Z,44.30
2018-01-11T11:01:13.231Z,44.30
2018-01-11T11:03:42.322Z,57.00
2018-01-11T11:06:10.613Z,57.30
2018-01-11T11:08:38.978Z,55.10
2018-01-11T11:11:07.267Z,53.50
2018-01-11T11:13:35.557Z,52.10
2018-01-11T11:16:04.264Z,50.10
2018-01-11T11:18:32.602Z,50.10
2018-01-11T11:21:00.907Z,49.30
2018-01-11T11:23:30.019Z,47.50
2018-01-11T11:25:58.303Z,46.10
2018-01-11T11:28:26.654Z,44.30
2018-01-11T11:30:54.974Z,43.40
2018-01-11T11:33:23.296Z,42.50
2018-01-11T11:35:51.990Z,42.20
2018-01-11T11:38:20.682Z,42.50
2018-01-11T11:40:49.378Z,42.50
2018-01-11T11:43:17.795Z,42.70
2018-01-11T11:45:46.401Z,42.70
2018-01-11T11:48:14.714Z,42.80
2018-01-11T11:50:43.133Z,43.00
2018-01-11T11:53:11.990Z,43.00
2018-01-11T11:55:40.425Z,43.30
2018-01-11T11:58:08.742Z,43.40
2018-01-11T12:00:37.043Z,43.60
2018-01-11T12:03:05.388Z,43.60
2018-01-11T12:05:33.712Z,43.70
2018-01-11T12:08:02.090Z,43.70
2018-01-11T12:10:30.394Z,43.70
2018-01-11T12:12:59.141Z,43.90
2018-01-11T12:15:27.501Z,43.90
2018-01-11T12:17:55.819Z,43.90
2018-01-11T12:20:24.134Z,44.00
2018-01-11T12:22:52.858Z,44.10
2018-01-11T12:25:21.171Z,44.10
2018-01-11T12:27:49.586Z,44.10
2018-01-11T12:30:17.916Z,44.10
2018-01-11T12:32:46.199Z,44.30
2018-01-11T12:35:14.542Z,44.30
2018-01-11T12:37:42.823Z,44.30
2018-01-11T12:40:11.263Z,44.30
2018-01-11T12:42:40.024Z,44.30
2018-01-11T12:45:08.342Z,44.40
2018-01-11T12:47:36.759Z,44.40
2018-01-11T12:50:05.129Z,44.40
2018-01-11T12:52:33.437Z,44.40
2018-01-11T12:55:01.797Z,44.40
2018-01-11T12:57:30.114Z,44.40
2018-01-11T12:59:58.800Z,44.60
2018-01-11T13:02:27.508Z,44.60
2018-01-11T13:04:55.931Z,44.60
2018-01-11T13:07:24.297Z,44.60
2018-01-11T13:09:52.663Z,44.60
2018-01-11T13:12:20.981Z,44.70
2018-01-11T13:14:49.342Z,44.70
2018-01-11T13:17:17.652Z,44.70
2018-01-11T13:19:46.349Z,44.70
2018-01-11T13:22:14.652Z,44.70
2018-01-11T13:24:42.956Z,44.90
2018-01-11T13:27:11.243Z,44.90
2018-01-11T13:29:39.522Z,44.90
2018-01-11T13:32:08.250Z,45.20
2018-01-11T13:34:36.535Z,45.00
2018-01-11T13:37:04.847Z,45.20
2018-01-11T13:39:33.151Z,45.20
2018-01-11T13:42:01.474Z,45.20
2018-01-11T13:44:29.799Z,45.20
2018-01-11T13:46:58.101Z,45.30
2018-01-11T13:49:26.381Z,45.30
2018-01-11T13:51:54.700Z,45.30
2018-01-11T13:54:23.018Z,45.30
2018-01-11T13:56:51.355Z,45.30
2018-01-11T13:59:19.676Z,45.50
2018-01-11T14:01:47.979Z,45.50
2018-01-11T14:04:16.391Z,45.50
2018-01-11T14:06:44.797Z,45.50
2018-01-11T14:09:13.142Z,45.50
2018-01-11T14:11:41.432Z,45.50
2018-01-11T14:14:09.745Z,45.50
2018-01-11T14:16:38.172Z,45.50
2018-01-11T14:19:07.087Z,45.50
2018-01-11T14:21:35.445Z,45.50
2018-01-11T14:24:03.731Z,45.50
2018-01-11T14:26:32.067Z,45.50
2018-01-11T14:29:00.374Z,45.50
2018-01-11T14:31:28.753Z,45.50
2018-01-11T14:33:57.100Z,45.50
2018-01-11T14:36:25.391Z,45.50
2018-01-11T14:38:53.691Z,45.50
2018-01-11T14:41:22.121Z,45.60
2018-01-11T14:43:50.443Z,45.60
2018-01-11T14:46:18.739Z,45.60
2018-01-11T14:48:48.083Z,45.60
2018-01-11T14:51:16.498Z,45.60
2018-01-11T14:53:44.811Z,45.80
2018-01-11T14:56:13.543Z,45.80
2018-01-11T14:58:41.863Z,45.80
2018-01-11T15:01:10.172Z,45.80
2018-01-11T15:03:38.495Z,45.80
2018-01-11T15:06:08.203Z,45.80
2018-01-11T15:08:36.520Z,45.80
2018-01-11T15:11:05.352Z,45.90
2018-01-11T15:13:34.531Z,45.90
2018-01-11T15:16:02.826Z,45.90
2018-01-11T15:18:31.322Z,45.90
2018-01-11T15:20:59.616Z,45.90
2018-01-11T15:23:28.673Z,46.10
2018-01-11T15:25:57.008Z,46.10
2018-01-11T15:28:25.315Z,46.10
2018-01-11T15:30:53.666Z,46.10
2018-01-11T15:33:22.397Z,46.10
2018-01-11T15:35:51.217Z,46.10
2018-01-11T15:38:20.091Z,46.20
2018-01-11T15:40:48.615Z,46.10
2018-01-11T15:43:17.453Z,46.20
2018-01-11T15:45:45.888Z,46.20
2018-01-11T15:48:14.322Z,46.20
2018-01-11T15:50:43.729Z,46.20
2018-01-11T15:53:12.777Z,46.20
2018-01-11T15:55:41.107Z,46.20
2018-01-11T15:58:09.473Z,46.20
2018-01-11T16:00:37.817Z,46.20
2018-01-11T16:03:06.100Z,46.20
2018-01-11T16:05:34.394Z,46.20
2018-01-11T16:08:02.726Z,46.20
2018-01-11T16:10:31.459Z,46.20
2018-01-11T16:13:00.081Z,46.20
2018-01-11T16:15:28.377Z,46.20
2018-01-11T16:17:56.735Z,46.40
2018-01-11T16:20:25.457Z,46.40
2018-01-11T16:22:53.776Z,46.40
2018-01-11T16:25:22.086Z,46.40
2018-01-11T16:27:50.371Z,46.40
2018-01-11T16:30:19.083Z,46.40
2018-01-11T16:32:47.420Z,46.40
2018-01-11T16:35:15.742Z,46.50
2018-01-11T16:37:44.118Z,46.50
2018-01-11T16:40:12.502Z,46.50
2018-01-11T16:42:40.864Z,46.50
2018-01-11T16:45:09.212Z,46.50
2018-01-11T16:47:37.622Z,46.70
2018-01-11T16:50:07.038Z,46.70
2018-01-11T16:52:35.948Z,46.70
2018-01-11T16:55:04.385Z,46.70
2018-01-11T16:57:32.746Z,46.70
2018-01-11T17:00:01.669Z,46.80
2018-01-11T17:02:30.169Z,46.70
2018-01-11T17:04:58.926Z,46.70
2018-01-11T17:07:27.377Z,46.70
2018-01-11T17:09:56.103Z,46.70
2018-01-11T17:12:24.626Z,46.70
2018-01-11T17:14:53.154Z,46.70
2018-01-11T17:17:21.590Z,46.70
2018-01-11T17:19:49.933Z,46.70
2018-01-11T17:22:18.357Z,46.70
2018-01-11T17:24:47.157Z,46.50
2018-01-11T17:27:15.535Z,46.50
2018-01-11T17:29:44.015Z,46.50
2018-01-11T17:32:12.376Z,46.50
2018-01-11T17:34:41.196Z,46.50
2018-01-11T17:37:09.727Z,46.50
2018-01-11T17:39:38.225Z,46.50
2018-01-11T17:42:06.865Z,46.50
2018-01-11T17:44:35.659Z,46.50
2018-01-11T17:47:04.123Z,46.50
2018-01-11T17:49:32.429Z,46.40
2018-01-11T17:52:00.736Z,46.50
2018-01-11T17:54:29.401Z,46.40
2018-01-11T17:56:57.702Z,46.40
2018-01-11T17:59:26.440Z,46.40
2018-01-11T18:01:54.727Z,46.50
2018-01-11T18:04:24.146Z,46.40
2018-01-11T18:06:52.542Z,46.40
2018-01-11T18:09:21.267Z,46.40
2018-01-11T18:11:49.636Z,46.40
2018-01-11T18:14:18.170Z,46.40
2018-01-11T18:16:46.477Z,46.40
2018-01-11T18:19:14.809Z,46.40
2018-01-11T18:21:43.203Z,46.40
2018-01-11T18:24:11.564Z,46.40
2018-01-11T18:26:39.856Z,46.40
2018-01-11T18:29:08.149Z,46.40
2018-01-11T18:31:36.863Z,46.40
2018-01-11T18:34:05.548Z,46.50
2018-01-11T18:36:34.298Z,46.40
2018-01-11T18:39:03.081Z,46.50
2018-01-11T18:41:31.362Z,46.50
2018-01-11T18:43:59.678Z,46.50
2018-01-11T18:46:28.370Z,46.40
2018-01-11T18:48:56.672Z,46.40
2018-01-11T18:51:24.970Z,46.40
2018-01-11T18:53:53.272Z,46.40
2018-01-11T18:56:21.980Z,46.40
2018-01-11T18:58:50.716Z,46.40
2018-01-11T19:01:19.180Z,46.40
2018-01-11T19:03:47.545Z,46.40
2018-01-11T19:06:15.866Z,46.40
2018-01-11T19:08:44.191Z,46.40
2018-01-11T19:11:12.522Z,46.40
2018-01-11T19:13:40.839Z,46.40
2018-01-11T19:16:09.175Z,46.40
2018-01-11T19:18:37.535Z,46.40
2018-01-11T19:21:05.846Z,46.40
2018-01-11T19:23:34.146Z,46.40
2018-01-11T19:26:02.883Z,46.40
2018-01-11T19:28:31.166Z,46.40
2018-01-11T19:30:59.486Z,46.40
2018-01-11T19:33:28.404Z,46.40
2018-01-11T19:35:56.745Z,46.40
2018-01-11T19:38:25.077Z,46.40
2018-01-11T19:40:53.444Z,46.20
2018-01-11T19:43:21.730Z,67.80
2018-01-11T19:45:50.043Z,70.10
2018-01-11T19:48:18.427Z,67.40
2018-01-11T19:50:47.122Z,61.00
2018-01-11T19:53:15.452Z,61.00
2018-01-11T19:55:43.776Z,58.90
2018-01-11T19:58:12.084Z,57.20
2018-01-11T20:00:40.442Z,55.10
2018-01-11T20:03:08.872Z,54.50
2018-01-11T20:05:37.164Z,53.20
2018-01-11T20:08:05.910Z,44.00
2018-01-11T20:10:34.263Z,44.00
2018-01-11T20:13:02.599Z,44.10
2018-01-11T20:15:31.345Z,44.30
2018-01-11T20:17:59.646Z,44.30
2018-01-11T20:20:28.095Z,44.40
2018-01-11T20:22:56.404Z,44.40
2018-01-11T20:25:24.773Z,44.60
2018-01-11T20:27:53.076Z,44.70
2018-01-11T20:30:21.371Z,45.00
2018-01-11T20:32:50.124Z,45.30
2018-01-11T20:35:18.481Z,45.30
2018-01-11T20:37:46.802Z,45.50
2018-01-11T20:40:15.111Z,45.60
2018-01-11T20:42:43.471Z,45.80
2018-01-11T20:45:11.771Z,45.90
2018-01-11T20:47:40.122Z,45.90
2018-01-11T20:50:08.879Z,46.10
2018-01-11T20:52:37.187Z,46.10
2018-01-11T20:55:05.901Z,46.20
2018-01-11T20:57:34.262Z,46.20
2018-01-11T21:00:03.011Z,46.20
2018-01-11T21:02:31.346Z,46.20
2018-01-11T21:04:59.661Z,46.20
2018-01-11T21:07:27.978Z,46.40
2018-01-11T21:09:56.861Z,46.50
2018-01-11T21:12:25.154Z,46.50
2018-01-11T21:14:53.469Z,46.50
2018-01-11T21:17:21.849Z,46.50
2018-01-11T21:19:50.160Z,46.50
2018-01-11T21:22:18.482Z,46.70
2018-01-11T21:24:46.806Z,46.70
2018-01-11T21:27:15.095Z,46.70
2018-01-11T21:29:43.398Z,46.70
2018-01-11T21:32:11.712Z,46.70
2018-01-11T21:34:39.991Z,46.70
2018-01-11T21:37:08.295Z,46.70
2018-01-11T21:39:37.075Z,46.70
2018-01-11T21:42:05.408Z,46.70
2018-01-11T21:44:33.746Z,46.70
2018-01-11T21:47:02.469Z,46.80
2018-01-11T21:49:30.783Z,46.80
2018-01-11T21:51:59.072Z,46.70
2018-01-11T21:54:27.350Z,46.70
2018-01-11T21:56:55.662Z,46.80
2018-01-11T21:59:23.965Z,46.80
2018-01-11T22:01:52.288Z,46.80
2018-01-11T22:04:20.610Z,46.70
2018-01-11T22:06:49.002Z,46.80
2018-01-11T22:09:17.402Z,46.80
2018-01-11T22:11:45.687Z,46.80
2018-01-11T22:14:13.967Z,46.80
2018-01-11T22:16:42.547Z,46.70
2018-01-11T22:19:10.826Z,46.80
2018-01-11T22:21:39.099Z,46.80
2018-01-11T22:24:07.449Z,46.80
2018-01-11T22:26:36.788Z,46.80
2018-01-11T22:29:06.674Z,46.70
2018-01-11T22:31:35.279Z,46.80
2018-01-11T22:34:03.582Z,46.80
2018-01-11T22:36:32.769Z,46.80
2018-01-11T22:39:01.390Z,46.80
2018-01-11T22:41:30.027Z,46.80
2018-01-11T22:43:58.385Z,46.80
2018-01-11T22:46:26.862Z,46.80
2018-01-11T22:48:55.398Z,47.00
2018-01-11T22:51:23.750Z,47.00
2018-01-11T22:53:52.527Z,47.00
2018-01-11T22:56:20.919Z,47.00
2018-01-11T22:58:49.283Z,47.00
2018-01-11T23:01:17.593Z,47.00
2018-01-11T23:03:45.922Z,47.00
2018-01-11T23:06:14.203Z,47.00
2018-01-11T23:08:42.507Z,47.00
2018-01-11T23:11:10.825Z,47.00
2018-01-11T23:13:39.359Z,47.00
2018-01-11T23:16:07.680Z,47.00
2018-01-11T23:18:36.066Z,47.00
2018-01-11T23:21:06.213Z,47.00
2018-01-11T23:23:34.815Z,47.00
2018-01-11T23:26:03.099Z,47.00
2018-01-11T23:28:31.442Z,47.00
2018-01-11T23:30:59.897Z,47.00
2018-01-11T23:33:28.343Z,47.00
2018-01-11T23:35:57.090Z,46.80
2018-01-11T23:38:25.401Z,47.00
2018-01-11T23:40:54.102Z,47.00
2018-01-11T23:43:22.421Z,47.00
2018-01-11T23:45:50.770Z,47.00
2018-01-11T23:48:19.054Z,47.00
2018-01-11T23:50:47.326Z,47.00
2018-01-11T23:53:15.716Z,47.00
2018-01-11T23:55:44.004Z,47.00
2018-01-11T23:58:12.280Z,47.00
